Time;durP1;ratioP1;P1;durP2;ratioP2;P2;SDS_P1;SDS_P2;PMS_P1;PMS_P2;Temp;Humidity;BMP_temperature;BMP_pressure;BME280_temperature;BME280_humidity;BME280_pressure;Samples;Min_cycle;Max_cycle;Signal;HPM_P1;HPM_P2
2023/03/29 00:00:12;;;;;;;18.80;10.60;;;;;;;-4.34;74.53;99464.44;221046;1281;22856;-69
2023/03/29 00:05:21;;;;;;;21.00;10.90;;;;;;;-4.39;74.55;99466.93;221215;1281;22580;-68
2023/03/29 00:10:23;;;;;;;20.20;10.60;;;;;;;-4.45;74.81;99460.89;221168;1279;22576;-68
2023/03/29 00:15:26;;;;;;;20.70;10.60;;;;;;;-4.51;74.97;99459.13;220926;1281;22622;-69
2023/03/29 00:20:37;;;;;;;20.40;10.70;;;;;;;-4.54;75.33;99456.02;221032;1281;22992;-69
2023/03/29 00:25:48;;;;;;;17.70;9.50;;;;;;;-4.52;75.54;99457.98;221126;1281;22652;-68
2023/03/29 00:30:53;;;;;;;17.70;9.90;;;;;;;-4.50;75.63;99453.08;220930;1281;22650;-69
2023/03/29 00:35:55;;;;;;;17.00;9.90;;;;;;;-4.52;75.63;99451.61;220980;1277;22566;-69
2023/03/29 00:41:00;;;;;;;19.70;9.70;;;;;;;-4.58;75.75;99446.77;220928;1281;22700;-69
2023/03/29 00:46:03;;;;;;;19.80;10.10;;;;;;;-4.64;75.99;99446.73;221079;1279;25018;-67
2023/03/29 00:51:09;;;;;;;20.00;11.00;;;;;;;-4.66;76.14;99440.11;221067;1281;22682;-68
2023/03/29 00:56:26;;;;;;;20.70;11.40;;;;;;;-4.68;76.25;99437.48;220943;1281;23087;-69
2023/03/29 01:02:05;;;;;;;21.30;12.40;;;;;;;-4.73;76.47;99439.08;220993;1279;22606;-68
2023/03/29 01:07:53;;;;;;;19.90;12.10;;;;;;;-4.79;76.52;99430.81;220971;1281;22711;-67
2023/03/29 01:13:10;;;;;;;23.30;12.70;;;;;;;-4.84;76.76;99423.14;220924;1279;22650;-68
2023/03/29 01:18:15;;;;;;;25.40;12.30;;;;;;;-4.89;77.00;99416.15;220929;1281;22562;-68
2023/03/29 01:23:33;;;;;;;20.80;11.60;;;;;;;-4.92;77.23;99419.63;221055;1281;22552;-68
2023/03/29 01:28:54;;;;;;;24.60;12.90;;;;;;;-4.94;77.50;99415.42;221006;1281;22635;-68
2023/03/29 01:34:10;;;;;;;25.00;13.00;;;;;;;-4.98;77.47;99401.14;221178;1258;25471;-70
2023/03/29 01:39:17;;;;;;;22.00;12.90;;;;;;;-5.00;77.51;99399.91;221090;1281;25390;-70
2023/03/29 01:44:39;;;;;;;23.90;14.00;;;;;;;-5.02;77.78;99397.23;221099;1281;24235;-68
2023/03/29 01:49:55;;;;;;;26.50;14.80;;;;;;;-5.04;77.98;99392.52;221105;1280;22570;-68
2023/03/29 01:55:23;;;;;;;25.90;14.20;;;;;;;-5.06;78.10;99392.84;221473;1273;24234;-68
2023/03/29 02:00:28;;;;;;;28.30;14.30;;;;;;;-5.08;78.18;99392.55;221390;1276;22775;-69
2023/03/29 02:05:34;;;;;;;29.70;15.70;;;;;;;-5.10;78.25;99398.70;221407;1280;22660;-67
2023/03/29 02:10:37;;;;;;;29.60;14.50;;;;;;;-5.14;78.35;99399.55;221248;1277;23820;-69
2023/03/29 02:15:39;;;;;;;26.40;14.10;;;;;;;-5.17;78.50;99402.11;220942;1276;24286;-68
2023/03/29 02:20:46;;;;;;;26.40;15.20;;;;;;;-5.20;78.71;99396.06;220924;1281;25509;-68
2023/03/29 02:25:52;;;;;;;28.00;15.50;;;;;;;-5.20;78.84;99398.67;220715;1280;25382;-69
2023/03/29 02:31:13;;;;;;;30.80;15.50;;;;;;;-5.23;78.92;99391.44;221280;1277;25495;-67
2023/03/29 02:36:18;;;;;;;27.10;15.50;;;;;;;-5.26;79.06;99395.35;221277;1276;22708;-68
2023/03/29 02:41:23;;;;;;;38.20;21.70;;;;;;;-5.29;79.20;99399.28;221000;1281;22570;-69
2023/03/29 02:46:29;;;;;;;41.50;23.30;;;;;;;-5.33;79.23;99398.23;220989;1281;22587;-68
2023/03/29 02:51:33;;;;;;;40.00;22.50;;;;;;;-5.36;79.21;99399.26;221095;1281;22675;-69
2023/03/29 02:56:49;;;;;;;40.80;23.60;;;;;;;-5.39;79.35;99404.90;221049;1280;23474;-69
2023/03/29 03:01:52;;;;;;;44.10;24.50;;;;;;;-5.41;79.53;99404.45;221211;1278;22548;-68
2023/03/29 03:06:55;;;;;;;50.70;27.40;;;;;;;-5.43;79.72;99401.98;221098;1279;22603;-69
2023/03/29 03:11:58;;;;;;;45.20;25.00;;;;;;;-5.44;79.86;99398.23;220808;1277;22734;-68
2023/03/29 03:17:03;;;;;;;46.90;25.40;;;;;;;-5.42;80.07;99398.51;221139;1261;22658;-69
2023/03/29 03:22:08;;;;;;;58.60;29.80;;;;;;;-5.39;80.15;99396.46;220986;1277;22557;-68
2023/03/29 03:27:13;;;;;;;63.60;33.70;;;;;;;-5.37;80.04;99394.52;220756;1281;25344;-69
2023/03/29 03:32:16;;;;;;;67.40;35.40;;;;;;;-5.38;79.94;99396.27;220959;1281;22783;-68
2023/03/29 03:37:39;;;;;;;70.20;39.40;;;;;;;-5.40;80.12;99392.58;221210;1281;24248;-68
2023/03/29 03:42:42;;;;;;;55.10;29.10;;;;;;;-5.42;80.11;99399.88;221286;1280;24006;-69
2023/03/29 03:47:45;;;;;;;59.00;32.20;;;;;;;-5.44;80.25;99399.98;221154;1281;22614;-68
2023/03/29 03:53:01;;;;;;;57.80;32.40;;;;;;;-5.46;80.22;99394.92;220958;1281;24391;-68
2023/03/29 03:58:16;;;;;;;65.10;35.00;;;;;;;-5.46;80.27;99393.91;221035;1281;24399;-67
2023/03/29 04:03:20;;;;;;;61.20;34.50;;;;;;;-5.48;80.34;99390.19;220965;1267;24018;-68
2023/03/29 04:08:34;;;;;;;66.50;36.30;;;;;;;-5.48;80.41;99388.85;221358;1275;22502;-67
2023/03/29 04:13:47;;;;;;;59.50;33.40;;;;;;;-5.51;80.22;99391.04;221125;1281;22639;-70
2023/03/29 04:19:12;;;;;;;63.90;32.80;;;;;;;-5.54;80.32;99384.66;220931;1257;22809;-69
2023/03/29 04:24:16;;;;;;;57.70;31.00;;;;;;;-5.54;80.32;99383.99;221122;1281;23107;-68
2023/03/29 04:29:45;;;;;;;57.30;32.20;;;;;;;-5.54;80.36;99374.91;221041;1281;22576;-68
2023/03/29 04:34:56;;;;;;;57.00;33.00;;;;;;;-5.53;80.46;99377.42;220781;1281;22681;-69
2023/03/29 04:39:59;;;;;;;57.90;33.00;;;;;;;-5.51;80.58;99375.09;221002;1279;22682;-67
2023/03/29 04:45:05;;;;;;;69.20;36.10;;;;;;;-5.47;80.75;99374.73;221029;1281;22594;-68
2023/03/29 04:50:24;;;;;;;69.40;40.30;;;;;;;-5.43;80.79;99375.38;221151;1280;22577;-68
2023/03/29 04:55:27;;;;;;;59.50;35.00;;;;;;;-5.37;80.88;99377.70;221022;1273;25471;-69
2023/03/29 05:00:36;;;;;;;62.10;34.60;;;;;;;-5.31;80.88;99380.96;220822;1281;22566;-69
2023/03/29 05:06:09;;;;;;;60.30;34.90;;;;;;;-5.22;80.98;99374.02;221034;1281;24169;-68
2023/03/29 05:11:12;;;;;;;61.60;34.70;;;;;;;-5.11;81.11;99373.13;221235;1257;22958;-68
2023/03/29 05:16:28;;;;;;;64.40;34.30;;;;;;;-4.98;81.09;99378.83;221009;1259;22850;-68
2023/03/29 05:21:33;;;;;;;58.50;34.60;;;;;;;-4.83;81.28;99385.83;221214;1280;22616;-68
2023/03/29 05:26:39;;;;;;;61.40;35.20;;;;;;;-4.68;81.23;99383.17;221072;1281;24341;-68
2023/03/29 05:31:41;;;;;;;62.50;32.90;;;;;;;-4.51;81.44;99380.75;221069;1281;23353;-68
2023/03/29 05:36:45;;;;;;;41.50;23.40;;;;;;;-4.34;81.29;99377.27;221245;1281;22782;-68
2023/03/29 05:41:48;;;;;;;51.60;27.60;;;;;;;-4.14;81.09;99379.86;221356;1275;24267;-68
2023/03/29 05:47:14;;;;;;;47.00;26.10;;;;;;;-3.93;81.01;99378.53;221074;1272;22589;-68
2023/03/29 05:52:17;;;;;;;50.50;29.70;;;;;;;-3.73;81.09;99377.77;221770;1269;24261;-67
2023/03/29 05:57:19;;;;;;;52.60;29.20;;;;;;;-3.52;80.82;99379.73;221692;1280;23246;-70
2023/03/29 06:02:24;;;;;;;54.70;30.60;;;;;;;-3.32;80.69;99379.44;221686;1273;22689;-67
2023/03/29 06:07:28;;;;;;;56.60;29.30;;;;;;;-3.10;80.34;99381.14;222115;1265;22709;-67
2023/03/29 06:13:00;;;;;;;53.70;29.70;;;;;;;-2.87;80.12;99380.14;220879;1260;147848;-69
2023/03/29 06:18:06;;;;;;;53.50;29.80;;;;;;;-2.68;79.92;99378.52;221150;1257;139057;-68
2023/03/29 06:23:09;;;;;;;45.80;27.00;;;;;;;-2.47;79.70;99377.29;221175;1273;139145;-69
2023/03/29 06:28:14;;;;;;;49.20;28.10;;;;;;;-2.26;79.36;99379.94;221661;1272;139691;-68
2023/03/29 06:33:17;;;;;;;49.50;28.30;;;;;;;-2.06;79.04;99386.13;221141;1272;139935;-69
2023/03/29 06:38:27;;;;;;;42.80;23.60;;;;;;;-1.83;79.05;99382.80;221181;1268;22571;-69
2023/03/29 06:43:31;;;;;;;40.10;23.00;;;;;;;-1.60;78.79;99384.47;221389;1262;139535;-69
2023/03/29 06:48:47;;;;;;;39.00;20.40;;;;;;;-1.37;78.76;99384.38;221143;1274;139505;-68
2023/03/29 06:53:53;;;;;;;34.60;19.60;;;;;;;-1.12;78.26;99387.10;221318;1273;139584;-69
2023/03/29 06:58:56;;;;;;;31.90;18.60;;;;;;;-0.88;77.92;99390.02;221059;1268;139224;-69
2023/03/29 07:04:08;;;;;;;27.10;16.40;;;;;;;-0.63;77.54;99390.61;220843;1280;138957;-70
2023/03/29 07:09:35;;;;;;;29.20;15.20;;;;;;;-0.38;76.68;99388.73;221194;1280;139642;-70
2023/03/29 07:15:01;;;;;;;24.50;13.20;;;;;;;-0.12;76.49;99378.12;221148;1275;139983;-70
2023/03/29 07:20:25;;;;;;;20.30;11.60;;;;;;;0.16;75.78;99379.63;221332;1272;22791;-70
2023/03/29 07:25:49;;;;;;;21.80;12.60;;;;;;;0.43;75.67;99377.70;221082;1280;22575;-73
2023/03/29 07:31:11;;;;;;;22.50;10.70;;;;;;;0.73;75.71;99379.34;221005;1278;138631;-74
2023/03/29 07:36:33;;;;;;;16.80;9.60;;;;;;;1.01;74.39;99373.78;221096;1281;138836;-75
2023/03/29 07:41:44;;;;;;;17.90;9.70;;;;;;;1.24;73.28;99368.27;221033;1280;138884;-75
2023/03/29 07:46:49;;;;;;;13.20;7.60;;;;;;;1.50;73.72;99365.44;221216;1281;138762;-74
2023/03/29 07:52:28;;;;;;;;;;;;;;;;;;;;;
2023/03/29 07:57:42;;;;;;;14.10;7.30;;;;;;;2.03;72.24;99361.10;220340;1286;138738;-74
2023/03/29 08:03:25;;;;;;;;;;;;;;;;;;;;;
2023/03/29 08:08:56;;;;;;;;;;;;;;;2.55;70.25;99365.70;220504;1283;138882;-75
2023/03/29 08:14:36;;;;;;;10.90;6.20;;;;;;;2.70;69.55;99359.56;220421;1271;23773;-75
2023/03/29 08:20:17;;;;;;;10.80;6.00;;;;;;;2.87;69.02;99357.01;220387;1275;25524;-73
2023/03/29 08:25:44;;;;;;;12.50;7.00;;;;;;;3.04;68.60;99357.52;220138;1264;22593;-74
2023/03/29 08:31:13;;;;;;;10.30;6.00;;;;;;;3.24;68.67;99350.94;220563;1284;137879;-75
2023/03/29 08:36:54;;;;;;;8.90;4.80;;;;;;;3.45;67.91;99341.88;220383;1288;137976;-76
2023/03/29 08:42:29;;;;;;;9.00;4.40;;;;;;;3.62;67.07;99335.94;220373;1286;137848;-75
2023/03/29 08:48:11;;;;;;;9.00;4.50;;;;;;;3.81;66.82;99333.07;220793;1283;137968;-72
2023/03/29 08:53:32;;;;;;;7.10;3.50;;;;;;;4.11;66.81;99340.42;220556;1264;138862;-73
2023/03/29 08:58:46;;;;;;;8.20;4.00;;;;;;;4.34;65.90;99336.45;221303;1276;138043;-73
2023/03/29 09:04:30;;;;;;;4.50;2.70;;;;;;;4.46;64.83;99333.80;221372;1283;138289;-74
2023/03/29 09:10:10;;;;;;;5.80;2.90;;;;;;;4.56;63.80;99323.65;221418;1275;138194;-81
2023/03/29 09:16:24;;;;;;;;;;;;;;;;;;;;;
2023/03/29 09:22:29;;;;;;;5.30;2.30;;;;;;;4.84;62.24;99317.51;221758;1280;138373;-75
2023/03/29 09:27:44;;;;;;;5.40;2.80;;;;;;;4.95;61.23;99308.95;221347;1280;137870;-73
2023/03/29 09:33:43;;;;;;;3.50;1.80;;;;;;;5.00;59.99;99309.62;221660;1275;138617;-74
2023/03/29 09:39:01;;;;;;;3.40;2.10;;;;;;;5.11;60.00;99305.94;221680;1280;137887;-75
2023/03/29 09:44:27;;;;;;;5.10;3.00;;;;;;;5.31;60.20;99300.23;221604;1280;22573;-74
2023/03/29 09:50:04;;;;;;;4.10;2.70;;;;;;;5.39;60.26;99296.70;221401;1280;22565;-74
2023/03/29 09:55:38;;;;;;;4.60;2.40;;;;;;;5.52;59.50;99295.34;221700;1280;137886;-73
2023/03/29 10:01:09;;;;;;;3.40;1.70;;;;;;;5.64;58.10;99295.50;221453;1267;138043;-73
2023/03/29 10:06:31;;;;;;;4.50;2.10;;;;;;;5.87;58.33;99289.77;221745;1279;138293;-73
2023/03/29 10:12:03;;;;;;;;;;;;;;;;;;;;;
2023/03/29 10:17:36;;;;;;;4.00;2.40;;;;;;;6.30;57.29;99285.78;221595;1265;138048;-74
2023/03/29 10:23:02;;;;;;;4.90;3.10;;;;;;;6.49;56.28;99282.00;221518;1265;191866;-74
2023/03/29 10:28:14;;;;;;;3.80;2.10;;;;;;;6.63;55.75;99273.73;221517;1274;138624;-74
2023/03/29 10:34:00;;;;;;;5.50;2.80;;;;;;;6.83;55.84;99273.21;221433;1281;138603;-74
2023/03/29 10:39:28;;;;;;;4.60;2.70;;;;;;;6.90;55.27;99266.70;221368;1281;137838;-74
2023/03/29 10:44:46;;;;;;;4.70;3.10;;;;;;;6.91;54.95;99258.70;221660;1280;24221;-73
2023/03/29 10:50:05;;;;;;;3.90;3.00;;;;;;;7.13;56.41;99250.24;221673;1280;22555;-73
2023/03/29 10:55:17;;;;;;;4.10;3.10;;;;;;;7.48;57.11;99238.79;221505;1281;137563;-74
2023/03/29 11:00:39;;;;;;;5.60;3.10;;;;;;;7.67;55.51;99233.31;221823;1275;138116;-73
2023/03/29 11:06:45;;;;;;;3.90;2.60;;;;;;;7.63;55.59;99228.04;221781;1280;137830;-74
2023/03/29 11:12:58;;;;;;;5.20;3.00;;;;;;;7.68;55.44;99218.23;221394;1278;137733;-74
2023/03/29 11:19:25;;;;;;;4.80;2.90;;;;;;;7.90;56.28;99209.36;221419;1280;138163;-74
2023/03/29 11:25:17;;;;;;;;;;;;;;;8.16;55.56;99193.04;221505;1280;138209;-74
2023/03/29 11:31:16;;;;;;;6.40;3.10;;;;;;;8.28;55.75;99182.95;221493;1275;124753;-73
2023/03/29 11:37:26;;;;;;;4.50;2.70;;;;;;;8.53;55.42;99178.61;220535;1264;137627;-76
2023/03/29 11:43:00;;;;;;;4.20;2.50;;;;;;;8.92;55.63;99173.30;220512;1281;137831;-75
2023/03/29 11:48:12;;;;;;;5.00;2.80;;;;;;;9.23;55.77;99163.20;221496;1280;137912;-72
2023/03/29 11:54:01;;;;;;;;;;;;;;;;;;;;;
2023/03/29 11:59:57;;;;;;;4.00;2.40;;;;;;;9.41;53.06;99151.73;222242;1270;138104;-73
2023/03/29 12:06:03;;;;;;;;;;;;;;;;;;;;;
2023/03/29 12:11:47;;;;;;;3.70;2.40;;;;;;;9.38;53.45;99144.83;222691;1281;138118;-73
2023/03/29 12:17:03;;;;;;;3.70;2.50;;;;;;;9.53;53.49;99145.84;221774;1281;137989;-74
2023/03/29 12:22:44;;;;;;;5.20;2.70;;;;;;;9.66;52.64;99137.08;221889;1281;138013;-75
2023/03/29 12:28:25;;;;;;;4.70;2.50;;;;;;;9.76;52.47;99124.77;221532;1281;138062;-75
2023/03/29 12:34:35;;;;;;;6.10;2.20;;;;;;;9.98;52.49;99114.75;222486;1281;138477;-74
2023/03/29 12:40:50;;;;;;;4.00;2.00;;;;;;;10.24;52.56;99107.73;221995;1278;138142;-76
2023/03/29 12:46:54;;;;;;;4.00;2.30;;;;;;;10.34;51.18;99093.75;221791;1287;139076;-73
2023/03/29 12:52:35;;;;;;;14.30;8.20;;;;;;;10.31;51.10;99090.12;222061;1281;138713;-73
2023/03/29 12:58:01;;;;;;;3.90;2.60;;;;;;;10.27;51.03;99086.02;222899;1280;138624;-76
2023/03/29 13:03:56;;;;;;;4.40;2.50;;;;;;;10.33;51.36;99083.02;221819;1280;138369;-75
2023/03/29 13:09:45;;;;;;;3.60;2.60;;;;;;;10.37;50.40;99079.26;222556;1280;138435;-74
2023/03/29 13:15:35;;;;;;;5.20;2.80;;;;;;;10.39;50.70;99073.14;222384;1280;138336;-74
2023/03/29 13:21:37;;;;;;;4.10;2.60;;;;;;;10.49;50.76;99070.25;221857;1275;138217;-74
2023/03/29 13:27:12;;;;;;;5.50;2.50;;;;;;;10.52;50.54;99070.55;222548;1278;138298;-74
2023/03/29 13:33:12;;;;;;;5.20;2.70;;;;;;;10.41;49.31;99064.27;222848;1275;24291;-74
2023/03/29 13:38:24;;;;;;;5.70;3.10;;;;;;;10.27;50.14;99052.22;221759;1278;22523;-72
2023/03/29 13:44:01;;;;;;;6.30;3.00;;;;;;;10.10;49.75;99044.66;221769;1256;137626;-74
2023/03/29 13:49:33;;;;;;;3.90;2.70;;;;;;;9.94;50.29;99029.98;221935;1272;138731;-76
2023/03/29 13:55:16;;;;;;;2.80;2.50;;;;;;;9.81;50.66;99026.70;221917;1273;138113;-78
2023/03/29 14:00:35;;;;;;;6.20;3.00;;;;;;;9.82;50.57;99026.64;221393;1259;137943;-72
2023/03/29 14:05:43;;;;;;;4.60;2.70;;;;;;;9.91;50.89;99021.36;221083;1275;24245;-69
2023/03/29 14:10:48;;;;;;;3.10;2.60;;;;;;;10.13;51.81;99016.14;221125;1280;24027;-70
2023/03/29 14:16:11;;;;;;;5.40;2.90;;;;;;;10.33;50.58;99008.44;221333;1280;22562;-70
2023/03/29 14:21:13;;;;;;;5.20;3.20;;;;;;;10.38;50.46;99011.65;221018;1280;25416;-70
2023/03/29 14:26:21;;;;;;;5.20;3.30;;;;;;;10.46;50.63;99011.00;221252;1278;24260;-70
2023/03/29 14:31:51;;;;;;;7.00;3.20;;;;;;;10.41;50.08;99005.17;221276;1280;25242;-70
2023/03/29 14:36:53;;;;;;;4.50;2.90;;;;;;;10.28;49.39;99001.09;221320;1257;22848;-74
2023/03/29 14:41:56;;;;;;;4.40;2.90;;;;;;;10.16;49.52;98993.42;221215;1278;24261;-71
2023/03/29 14:47:02;;;;;;;4.30;3.10;;;;;;;10.17;49.83;98984.17;221564;1278;25288;-70
2023/03/29 14:52:13;;;;;;;6.50;2.50;;;;;;;10.14;49.31;98984.89;221158;1280;22588;-69
2023/03/29 14:57:19;;;;;;;4.10;2.40;;;;;;;10.11;49.28;98985.27;221197;1280;22561;-70
2023/03/29 15:02:34;;;;;;;4.90;2.90;;;;;;;10.06;49.26;98975.35;221177;1280;22687;-70
2023/03/29 15:07:42;;;;;;;6.40;3.70;;;;;;;10.01;49.55;98972.84;221368;1278;25366;-70
2023/03/29 15:12:45;;;;;;;5.70;3.50;;;;;;;9.89;49.38;98970.22;221312;1277;22760;-70
2023/03/29 15:17:51;;;;;;;6.10;3.40;;;;;;;9.83;49.68;98964.95;221227;1280;22641;-70
2023/03/29 15:23:16;;;;;;;5.70;3.80;;;;;;;9.75;49.79;98965.56;221262;1280;24235;-69
2023/03/29 15:28:43;;;;;;;6.70;3.90;;;;;;;9.72;50.59;98960.30;221436;1280;22560;-71
2023/03/29 15:34:23;;;;;;;7.50;3.70;;;;;;;9.68;50.89;98962.27;221273;1278;22604;-72
2023/03/29 15:39:34;;;;;;;5.60;3.20;;;;;;;9.60;50.63;98957.48;221246;1280;22647;-70
2023/03/29 15:44:40;;;;;;;6.30;3.60;;;;;;;9.56;50.66;98949.25;221313;1278;22557;-71
2023/03/29 15:49:52;;;;;;;4.90;3.20;;;;;;;9.51;50.55;98954.14;221062;1280;22526;-71
2023/03/29 15:54:54;;;;;;;5.10;3.20;;;;;;;9.36;50.02;98950.16;221084;1279;22516;-70
2023/03/29 16:00:06;;;;;;;4.30;3.40;;;;;;;9.18;50.43;98948.41;221327;1278;22882;-71
2023/03/29 16:05:13;;;;;;;4.90;2.80;;;;;;;8.96;50.51;98943.17;221063;1280;22635;-71
2023/03/29 16:10:19;;;;;;;5.40;3.00;;;;;;;8.72;50.88;98937.97;220905;1280;22550;-69
2023/03/29 16:15:32;;;;;;;7.70;4.00;;;;;;;8.50;50.82;98930.64;221223;1278;25588;-72
2023/03/29 16:20:36;;;;;;;7.20;4.30;;;;;;;8.30;51.07;98935.16;221615;1280;22545;-70
2023/03/29 16:26:03;;;;;;;6.60;3.10;;;;;;;8.14;51.76;98940.86;221091;1280;24248;-70
2023/03/29 16:31:16;;;;;;;6.00;3.50;;;;;;;7.99;51.18;98939.30;221870;1278;22530;-71
2023/03/29 16:36:23;;;;;;;6.80;3.00;;;;;;;7.87;51.56;98945.31;221393;1278;22534;-69
2023/03/29 16:41:37;;;;;;;4.20;3.00;;;;;;;7.77;51.58;98949.79;221658;1280;22701;-70
2023/03/29 16:46:45;;;;;;;5.60;3.60;;;;;;;7.67;51.96;98948.73;221140;1280;25256;-72
2023/03/29 16:51:47;;;;;;;5.80;3.30;;;;;;;7.57;52.55;98950.53;221375;1278;22633;-70
2023/03/29 16:56:52;;;;;;;5.80;3.10;;;;;;;7.49;52.70;98952.14;221108;1278;22531;-70
2023/03/29 17:01:57;;;;;;;6.80;3.40;;;;;;;7.39;52.89;98953.91;221158;1279;22581;-71
2023/03/29 17:07:00;;;;;;;7.00;3.80;;;;;;;7.29;53.27;98951.79;221298;1280;22661;-70
2023/03/29 17:12:06;;;;;;;7.20;4.00;;;;;;;7.21;53.12;98958.81;221310;1276;22515;-69
2023/03/29 17:17:09;;;;;;;8.40;5.30;;;;;;;7.11;53.06;98951.83;221144;1280;22704;-70
2023/03/29 17:22:12;;;;;;;6.00;3.70;;;;;;;7.00;52.87;98954.17;221392;1278;23760;-70
2023/03/29 17:27:14;;;;;;;7.20;4.10;;;;;;;6.89;53.13;98956.38;221031;1280;25349;-69
2023/03/29 17:32:19;;;;;;;7.00;3.80;;;;;;;6.79;53.22;98958.00;221122;1280;22687;-70
2023/03/29 17:37:28;;;;;;;9.80;4.60;;;;;;;6.68;53.65;98962.42;221229;1280;23438;-70
2023/03/29 17:42:33;;;;;;;7.80;4.50;;;;;;;6.59;53.48;98966.16;221301;1280;22533;-69
2023/03/29 17:47:42;;;;;;;6.40;4.10;;;;;;;6.51;54.06;98958.79;221263;1280;24336;-70
2023/03/29 17:52:47;;;;;;;8.20;4.50;;;;;;;6.45;53.87;98958.42;221234;1279;22533;-70
2023/03/29 17:57:50;;;;;;;9.20;4.20;;;;;;;6.37;53.98;98966.48;221232;1280;22667;-71
2023/03/29 18:02:53;;;;;;;6.60;4.40;;;;;;;6.26;54.33;98969.22;221457;1280;23937;-69
2023/03/29 18:07:56;;;;;;;9.10;4.30;;;;;;;6.15;54.71;98971.41;220906;1280;23578;-70
2023/03/29 18:12:59;;;;;;;8.80;4.60;;;;;;;6.04;54.95;98972.17;221299;1280;24340;-70
2023/03/29 18:18:02;;;;;;;10.90;5.70;;;;;;;5.94;55.01;98968.59;221042;1257;25568;-70
2023/03/29 18:23:08;;;;;;;9.00;5.20;;;;;;;5.84;55.09;98980.98;221401;1277;24241;-70
2023/03/29 18:28:13;;;;;;;12.50;6.00;;;;;;;5.74;55.31;98981.96;221245;1279;25465;-70
2023/03/29 18:33:24;;;;;;;10.80;5.80;;;;;;;5.63;55.79;98979.26;221249;1280;22537;-70
2023/03/29 18:38:26;;;;;;;13.00;6.10;;;;;;;5.52;56.08;98975.42;221173;1280;22557;-70
2023/03/29 18:43:32;;;;;;;12.90;5.80;;;;;;;5.42;56.46;98969.45;221332;1278;22642;-70
2023/03/29 18:48:41;;;;;;;14.30;7.70;;;;;;;5.36;56.67;98965.66;221206;1281;23508;-69
2023/03/29 18:53:43;;;;;;;11.50;5.70;;;;;;;5.28;57.08;98957.17;221291;1280;22584;-70
2023/03/29 18:58:46;;;;;;;10.60;5.70;;;;;;;5.20;57.13;98957.45;221217;1280;25396;-69
2023/03/29 19:03:49;;;;;;;10.70;5.70;;;;;;;5.13;57.61;98965.13;221317;1280;24252;-70
2023/03/29 19:08:57;;;;;;;8.70;5.20;;;;;;;5.09;57.81;98973.05;221012;1280;22532;-70
2023/03/29 19:13:59;;;;;;;10.10;6.10;;;;;;;5.01;58.18;98969.61;221160;1280;22528;-69
2023/03/29 19:19:03;;;;;;;12.90;5.80;;;;;;;4.92;58.49;98972.75;221445;1279;24139;-69
2023/03/29 19:24:06;;;;;;;9.90;5.80;;;;;;;4.85;58.78;98970.30;221339;1257;25370;-70
2023/03/29 19:29:09;;;;;;;11.10;5.80;;;;;;;4.80;59.07;98970.45;221141;1280;24282;-70
2023/03/29 19:34:19;;;;;;;13.40;5.90;;;;;;;4.78;59.30;98971.15;221240;1280;24248;-70
2023/03/29 19:39:23;;;;;;;11.40;6.10;;;;;;;4.84;59.67;98972.34;221355;1281;26464;-70
2023/03/29 19:44:26;;;;;;;9.80;5.60;;;;;;;4.92;59.59;98968.87;221529;1281;24515;-70
2023/03/29 19:49:29;;;;;;;11.60;6.40;;;;;;;4.99;59.73;98968.75;221245;1280;22555;-71
2023/03/29 19:54:32;;;;;;;15.10;8.10;;;;;;;5.02;59.73;98948.59;221109;1280;23011;-70
2023/03/29 19:59:36;;;;;;;17.60;9.80;;;;;;;5.03;59.78;98953.05;221090;1262;24147;-71
2023/03/29 20:04:40;;;;;;;19.40;9.80;;;;;;;5.03;59.83;98954.09;221246;1277;22533;-70
2023/03/29 20:09:43;;;;;;;22.50;10.70;;;;;;;5.03;59.86;98952.98;221002;1280;22656;-70
2023/03/29 20:14:55;;;;;;;23.30;10.90;;;;;;;5.05;60.02;98956.10;221417;1280;23755;-69
2023/03/29 20:19:57;;;;;;;21.90;9.90;;;;;;;5.09;60.35;98944.44;221316;1277;25324;-71
2023/03/29 20:24:59;;;;;;;15.80;8.80;;;;;;;5.11;60.38;98941.76;221153;1280;22530;-71
2023/03/29 20:30:03;;;;;;;15.10;7.30;;;;;;;5.12;60.53;98936.92;221055;1280;22554;-71
2023/03/29 20:35:05;;;;;;;10.90;6.40;;;;;;;5.13;60.64;98933.04;221375;1276;23605;-70
2023/03/29 20:40:09;;;;;;;10.70;5.90;;;;;;;5.15;60.95;98939.74;221059;1280;22574;-70
2023/03/29 20:45:17;;;;;;;11.40;6.00;;;;;;;5.19;61.12;98938.38;221270;1273;24291;-69
2023/03/29 20:50:24;;;;;;;12.40;5.60;;;;;;;5.21;61.29;98935.66;221159;1278;22540;-70
2023/03/29 20:55:29;;;;;;;8.30;4.90;;;;;;;5.26;61.27;98930.86;221068;1280;22621;-70
2023/03/29 21:00:36;;;;;;;10.40;5.50;;;;;;;5.29;61.42;98926.17;221289;1272;24273;-70
2023/03/29 21:05:39;;;;;;;9.10;4.40;;;;;;;5.32;61.27;98929.77;221166;1279;22680;-71
2023/03/29 21:10:49;;;;;;;8.10;4.40;;;;;;;5.34;61.70;98925.92;221128;1280;24474;-71
2023/03/29 21:15:55;;;;;;;7.20;4.60;;;;;;;5.37;61.78;98928.20;221164;1280;22531;-69
2023/03/29 21:21:03;;;;;;;7.20;4.20;;;;;;;5.39;61.79;98920.10;221101;1279;25345;-70
2023/03/29 21:26:11;;;;;;;9.20;4.70;;;;;;;5.41;62.01;98919.36;221115;1280;25392;-70
2023/03/29 21:31:16;;;;;;;6.90;4.30;;;;;;;5.44;62.17;98907.98;221148;1279;22570;-69
2023/03/29 21:36:19;;;;;;;6.90;4.20;;;;;;;5.46;62.25;98900.55;221359;1280;22559;-70
2023/03/29 21:41:25;;;;;;;9.20;4.10;;;;;;;5.48;62.24;98895.35;221172;1280;22573;-69
2023/03/29 21:46:33;;;;;;;8.20;4.10;;;;;;;5.48;62.65;98895.10;221230;1279;22534;-71
2023/03/29 21:51:45;;;;;;;8.30;4.60;;;;;;;5.49;62.75;98886.25;221226;1277;25438;-70
2023/03/29 21:56:49;;;;;;;8.00;4.10;;;;;;;5.50;62.76;98882.38;221218;1275;25066;-70
2023/03/29 22:01:52;;;;;;;7.50;4.50;;;;;;;5.49;62.87;98879.02;221145;1279;25080;-70
2023/03/29 22:06:55;;;;;;;7.20;3.90;;;;;;;5.48;62.95;98878.92;220918;1280;22662;-70
2023/03/29 22:11:58;;;;;;;6.00;3.60;;;;;;;5.47;63.56;98875.17;221063;1280;25524;-70
2023/03/29 22:17:05;;;;;;;7.10;3.80;;;;;;;5.47;63.27;98869.17;221213;1280;22534;-70
2023/03/29 22:22:25;;;;;;;7.00;3.70;;;;;;;5.47;63.59;98864.63;220965;1280;138389;-71
2023/03/29 22:27:29;;;;;;;6.00;3.40;;;;;;;5.47;63.87;98868.14;221406;1280;23124;-71
2023/03/29 22:32:34;;;;;;;6.80;3.40;;;;;;;5.49;64.15;98867.48;221147;1262;25402;-69
2023/03/29 22:37:43;;;;;;;5.90;3.40;;;;;;;5.49;64.22;98866.49;221162;1279;22551;-70
2023/03/29 22:42:48;;;;;;;6.50;3.40;;;;;;;5.51;64.41;98866.69;221160;1280;25385;-70
2023/03/29 22:48:34;;;;;;;5.70;3.30;;;;;;;5.53;64.59;98864.95;221209;1280;24125;-70
2023/03/29 22:53:37;;;;;;;6.20;3.70;;;;;;;5.54;64.52;98865.12;221304;1280;22534;-70
2023/03/29 22:59:05;;;;;;;5.40;3.60;;;;;;;5.57;64.74;98864.36;221099;1268;22653;-69
2023/03/29 23:04:37;;;;;;;5.80;3.40;;;;;;;5.59;64.93;98857.49;221419;1280;22663;-70
2023/03/29 23:10:41;;;;;;;;;;;;;;;;;;;;;
2023/03/29 23:16:32;;;;;;;5.90;3.60;;;;;;;5.61;65.32;98864.23;221104;1280;22538;-70
2023/03/29 23:21:45;;;;;;;5.50;2.80;;;;;;;5.64;65.65;98864.30;221326;1279;22513;-70
2023/03/29 23:27:28;;;;;;;;;;;;;;;;;;;;;
2023/03/29 23:33:14;;;;;;;6.70;3.50;;;;;;;5.62;65.99;98852.97;221335;1280;26149;-69
2023/03/29 23:38:43;;;;;;;5.50;3.50;;;;;;;5.60;66.14;98852.49;221503;1280;22608;-70
2023/03/29 23:43:56;;;;;;;5.80;3.80;;;;;;;5.59;66.38;98850.45;221413;1280;25506;-69
2023/03/29 23:49:50;;;;;;;5.60;3.50;;;;;;;5.58;66.54;98848.84;221641;1280;22537;-70
2023/03/29 23:55:29;;;;;;;6.40;3.20;;;;;;;5.56;66.77;98844.30;221200;1280;25317;-69
